sensor_id;sensor_type;location;lat;lon;timestamp;temperature;humidity
73643;DHT22;61938;48.652;9.292;2023-08-07T00:01:06;11.30;99.90
73643;DHT22;61938;48.652;9.292;2023-08-07T00:03:32;11.30;99.90
73643;DHT22;61938;48.652;9.292;2023-08-07T00:05:57;11.30;99.90
73643;DHT22;61938;48.652;9.292;2023-08-07T00:08:23;11.30;99.90
73643;DHT22;61938;48.652;9.292;2023-08-07T00:10:48;11.20;99.90
73643;DHT22;61938;48.652;9.292;2023-08-07T00:13:14;11.20;99.90
73643;DHT22;61938;48.652;9.292;2023-08-07T00:15:40;11.20;99.90
73643;DHT22;61938;48.652;9.292;2023-08-07T00:18:05;11.20;99.90
73643;DHT22;61938;48.652;9.292;2023-08-07T00:20:31;11.20;99.90
73643;DHT22;61938;48.652;9.292;2023-08-07T00:22:57;11.20;99.90
73643;DHT22;61938;48.652;9.292;2023-08-07T00:25:22;11.20;99.90
73643;DHT22;61938;48.652;9.292;2023-08-07T00:27:48;11.20;99.90
73643;DHT22;61938;48.652;9.292;2023-08-07T00:30:14;11.20;99.90
73643;DHT22;61938;48.652;9.292;2023-08-07T00:32:39;11.10;99.90
73643;DHT22;61938;48.652;9.292;2023-08-07T00:35:05;11.10;99.90
73643;DHT22;61938;48.652;9.292;2023-08-07T00:37:31;11.10;99.90
73643;DHT22;61938;48.652;9.292;2023-08-07T00:39:57;11.10;99.90
73643;DHT22;61938;48.652;9.292;2023-08-07T00:42:22;11.00;99.90
73643;DHT22;61938;48.652;9.292;2023-08-07T00:44:48;11.00;99.90
73643;DHT22;61938;48.652;9.292;2023-08-07T00:47:13;11.00;99.90
73643;DHT22;61938;48.652;9.292;2023-08-07T00:49:39;11.00;99.90
73643;DHT22;61938;48.652;9.292;2023-08-07T00:52:06;10.90;99.90
73643;DHT22;61938;48.652;9.292;2023-08-07T00:54:32;10.90;99.90
73643;DHT22;61938;48.652;9.292;2023-08-07T00:57:11;10.90;99.90
73643;DHT22;61938;48.652;9.292;2023-08-07T00:59:38;10.90;99.90
73643;DHT22;61938;48.652;9.292;2023-08-07T01:02:04;10.90;99.90
73643;DHT22;61938;48.652;9.292;2023-08-07T01:04:31;10.80;99.90
73643;DHT22;61938;48.652;9.292;2023-08-07T01:06:56;10.80;99.90
73643;DHT22;61938;48.652;9.292;2023-08-07T01:09:22;10.80;99.90
73643;DHT22;61938;48.652;9.292;2023-08-07T01:12:08;10.80;99.90
73643;DHT22;61938;48.652;9.292;2023-08-07T01:14:43;10.70;99.90
73643;DHT22;61938;48.652;9.292;2023-08-07T01:17:15;10.70;99.90
73643;DHT22;61938;48.652;9.292;2023-08-07T01:19:41;10.80;99.90
73643;DHT22;61938;48.652;9.292;2023-08-07T01:24:37;10.80;99.90
73643;DHT22;61938;48.652;9.292;2023-08-07T01:33:16;10.80;99.90
73643;DHT22;61938;48.652;9.292;2023-08-07T01:35:52;10.80;99.90
73643;DHT22;61938;48.652;9.292;2023-08-07T01:38:19;10.80;99.90
73643;DHT22;61938;48.652;9.292;2023-08-07T01:40:47;10.80;99.90
73643;DHT22;61938;48.652;9.292;2023-08-07T01:43:13;10.70;99.90
73643;DHT22;61938;48.652;9.292;2023-08-07T01:45:38;10.70;99.90
73643;DHT22;61938;48.652;9.292;2023-08-07T01:48:04;10.70;99.90
73643;DHT22;61938;48.652;9.292;2023-08-07T01:50:30;10.70;99.90
73643;DHT22;61938;48.652;9.292;2023-08-07T01:52:55;10.60;99.90
73643;DHT22;61938;48.652;9.292;2023-08-07T01:55:22;10.60;99.90
73643;DHT22;61938;48.652;9.292;2023-08-07T01:57:47;10.60;99.90
73643;DHT22;61938;48.652;9.292;2023-08-07T02:00:13;10.50;99.90
73643;DHT22;61938;48.652;9.292;2023-08-07T02:02:39;10.50;99.90
73643;DHT22;61938;48.652;9.292;2023-08-07T02:05:05;10.50;99.90
73643;DHT22;61938;48.652;9.292;2023-08-07T02:07:31;10.50;99.90
73643;DHT22;61938;48.652;9.292;2023-08-07T02:09:57;10.50;99.90
73643;DHT22;61938;48.652;9.292;2023-08-07T02:12:22;10.50;99.90
73643;DHT22;61938;48.652;9.292;2023-08-07T02:14:48;10.50;99.90
73643;DHT22;61938;48.652;9.292;2023-08-07T02:17:13;10.50;99.90
73643;DHT22;61938;48.652;9.292;2023-08-07T02:19:39;10.50;99.90
73643;DHT22;61938;48.652;9.292;2023-08-07T02:22:05;10.50;99.90
73643;DHT22;61938;48.652;9.292;2023-08-07T02:24:30;10.60;99.90
73643;DHT22;61938;48.652;9.292;2023-08-07T02:26:56;10.60;99.90
73643;DHT22;61938;48.652;9.292;2023-08-07T02:29:22;10.60;99.90
73643;DHT22;61938;48.652;9.292;2023-08-07T02:31:47;10.60;99.90
73643;DHT22;61938;48.652;9.292;2023-08-07T02:34:13;10.60;99.90
73643;DHT22;61938;48.652;9.292;2023-08-07T02:36:38;10.70;99.90
73643;DHT22;61938;48.652;9.292;2023-08-07T02:39:04;10.70;99.90
73643;DHT22;61938;48.652;9.292;2023-08-07T02:41:29;10.70;99.90
73643;DHT22;61938;48.652;9.292;2023-08-07T02:43:56;10.70;99.90
73643;DHT22;61938;48.652;9.292;2023-08-07T02:46:22;10.70;99.90
73643;DHT22;61938;48.652;9.292;2023-08-07T02:48:47;10.70;99.90
73643;DHT22;61938;48.652;9.292;2023-08-07T02:51:13;10.80;99.90
73643;DHT22;61938;48.652;9.292;2023-08-07T02:53:38;10.80;99.90
73643;DHT22;61938;48.652;9.292;2023-08-07T02:56:04;10.80;99.90
73643;DHT22;61938;48.652;9.292;2023-08-07T02:58:29;10.90;99.90
73643;DHT22;61938;48.652;9.292;2023-08-07T03:00:55;10.90;99.90
73643;DHT22;61938;48.652;9.292;2023-08-07T03:03:20;10.90;99.90
73643;DHT22;61938;48.652;9.292;2023-08-07T03:05:49;10.90;99.90
73643;DHT22;61938;48.652;9.292;2023-08-07T03:08:16;11.00;99.90
73643;DHT22;61938;48.652;9.292;2023-08-07T03:10:41;11.00;99.90
73643;DHT22;61938;48.652;9.292;2023-08-07T03:13:07;11.00;99.90
73643;DHT22;61938;48.652;9.292;2023-08-07T03:15:32;11.00;99.90
73643;DHT22;61938;48.652;9.292;2023-08-07T03:17:58;10.90;99.90
73643;DHT22;61938;48.652;9.292;2023-08-07T03:20:23;11.00;99.90
73643;DHT22;61938;48.652;9.292;2023-08-07T03:22:49;11.00;99.90
73643;DHT22;61938;48.652;9.292;2023-08-07T03:25:14;10.90;99.90
73643;DHT22;61938;48.652;9.292;2023-08-07T03:27:40;10.90;99.90
73643;DHT22;61938;48.652;9.292;2023-08-07T03:30:06;10.90;99.90
73643;DHT22;61938;48.652;9.292;2023-08-07T03:32:31;10.80;99.90
73643;DHT22;61938;48.652;9.292;2023-08-07T03:34:57;10.80;99.90
73643;DHT22;61938;48.652;9.292;2023-08-07T03:37:22;10.90;99.90
73643;DHT22;61938;48.652;9.292;2023-08-07T03:39:48;10.90;99.90
73643;DHT22;61938;48.652;9.292;2023-08-07T03:42:14;10.90;99.90
73643;DHT22;61938;48.652;9.292;2023-08-07T03:44:40;10.90;99.90
73643;DHT22;61938;48.652;9.292;2023-08-07T03:47:06;10.80;99.90
73643;DHT22;61938;48.652;9.292;2023-08-07T03:49:32;10.80;99.90
73643;DHT22;61938;48.652;9.292;2023-08-07T03:51:57;10.70;99.90
73643;DHT22;61938;48.652;9.292;2023-08-07T03:54:24;10.60;99.90
73643;DHT22;61938;48.652;9.292;2023-08-07T03:56:50;10.50;99.90
73643;DHT22;61938;48.652;9.292;2023-08-07T03:59:16;10.50;99.90
73643;DHT22;61938;48.652;9.292;2023-08-07T04:01:42;10.40;99.90
73643;DHT22;61938;48.652;9.292;2023-08-07T04:04:08;10.40;99.90
73643;DHT22;61938;48.652;9.292;2023-08-07T04:06:33;10.40;99.90
73643;DHT22;61938;48.652;9.292;2023-08-07T04:08:59;10.30;99.90
73643;DHT22;61938;48.652;9.292;2023-08-07T04:11:24;10.30;99.90
73643;DHT22;61938;48.652;9.292;2023-08-07T04:13:50;10.30;99.90
73643;DHT22;61938;48.652;9.292;2023-08-07T04:16:15;10.30;99.90
73643;DHT22;61938;48.652;9.292;2023-08-07T04:18:42;10.30;99.90
73643;DHT22;61938;48.652;9.292;2023-08-07T04:21:07;10.30;99.90
73643;DHT22;61938;48.652;9.292;2023-08-07T04:23:33;10.30;99.90
73643;DHT22;61938;48.652;9.292;2023-08-07T04:25:59;10.30;99.90
73643;DHT22;61938;48.652;9.292;2023-08-07T04:28:24;10.30;99.90
73643;DHT22;61938;48.652;9.292;2023-08-07T04:30:51;10.30;99.90
73643;DHT22;61938;48.652;9.292;2023-08-07T04:33:17;10.30;99.90
73643;DHT22;61938;48.652;9.292;2023-08-07T04:35:43;10.30;99.90
73643;DHT22;61938;48.652;9.292;2023-08-07T04:38:08;10.20;99.90
73643;DHT22;61938;48.652;9.292;2023-08-07T04:40:34;10.20;99.90
73643;DHT22;61938;48.652;9.292;2023-08-07T04:42:59;10.20;99.90
73643;DHT22;61938;48.652;9.292;2023-08-07T04:45:25;10.20;99.90
73643;DHT22;61938;48.652;9.292;2023-08-07T04:47:51;10.10;99.90
73643;DHT22;61938;48.652;9.292;2023-08-07T04:50:17;10.10;99.90
73643;DHT22;61938;48.652;9.292;2023-08-07T04:52:42;10.10;99.90
73643;DHT22;61938;48.652;9.292;2023-08-07T04:55:08;10.10;99.90
73643;DHT22;61938;48.652;9.292;2023-08-07T04:57:33;10.10;99.90
73643;DHT22;61938;48.652;9.292;2023-08-07T04:59:59;10.10;99.90
73643;DHT22;61938;48.652;9.292;2023-08-07T05:02:24;10.10;99.90
73643;DHT22;61938;48.652;9.292;2023-08-07T05:04:50;10.10;99.90
73643;DHT22;61938;48.652;9.292;2023-08-07T05:07:15;10.20;99.90
73643;DHT22;61938;48.652;9.292;2023-08-07T05:09:41;10.20;99.90
73643;DHT22;61938;48.652;9.292;2023-08-07T05:12:07;10.20;99.90
73643;DHT22;61938;48.652;9.292;2023-08-07T05:14:33;10.20;99.90
73643;DHT22;61938;48.652;9.292;2023-08-07T05:16:58;10.30;99.90
73643;DHT22;61938;48.652;9.292;2023-08-07T05:19:25;10.40;99.90
73643;DHT22;61938;48.652;9.292;2023-08-07T05:21:50;10.40;99.90
73643;DHT22;61938;48.652;9.292;2023-08-07T05:24:19;10.50;99.90
73643;DHT22;61938;48.652;9.292;2023-08-07T05:26:45;10.50;99.90
73643;DHT22;61938;48.652;9.292;2023-08-07T05:29:11;10.60;99.90
73643;DHT22;61938;48.652;9.292;2023-08-07T05:31:36;10.60;99.90
73643;DHT22;61938;48.652;9.292;2023-08-07T05:34:02;10.60;99.90
73643;DHT22;61938;48.652;9.292;2023-08-07T05:36:28;10.70;99.90
73643;DHT22;61938;48.652;9.292;2023-08-07T05:38:55;10.70;99.90
73643;DHT22;61938;48.652;9.292;2023-08-07T05:41:20;10.80;99.90
73643;DHT22;61938;48.652;9.292;2023-08-07T05:43:46;10.80;99.90
73643;DHT22;61938;48.652;9.292;2023-08-07T05:46:11;10.80;99.90
73643;DHT22;61938;48.652;9.292;2023-08-07T05:48:37;10.90;99.90
73643;DHT22;61938;48.652;9.292;2023-08-07T05:51:02;10.90;99.90
73643;DHT22;61938;48.652;9.292;2023-08-07T05:53:28;10.90;99.90
73643;DHT22;61938;48.652;9.292;2023-08-07T05:55:54;11.00;99.90
73643;DHT22;61938;48.652;9.292;2023-08-07T05:58:20;11.00;99.90
73643;DHT22;61938;48.652;9.292;2023-08-07T06:00:45;11.10;99.90
73643;DHT22;61938;48.652;9.292;2023-08-07T06:03:11;11.10;99.90
73643;DHT22;61938;48.652;9.292;2023-08-07T06:05:37;11.10;99.90
73643;DHT22;61938;48.652;9.292;2023-08-07T06:08:02;11.20;99.90
73643;DHT22;61938;48.652;9.292;2023-08-07T06:10:28;11.20;99.90
73643;DHT22;61938;48.652;9.292;2023-08-07T06:12:53;11.30;99.90
73643;DHT22;61938;48.652;9.292;2023-08-07T06:15:19;11.30;99.90
73643;DHT22;61938;48.652;9.292;2023-08-07T06:17:45;11.30;99.90
73643;DHT22;61938;48.652;9.292;2023-08-07T06:20:11;11.40;99.90
73643;DHT22;61938;48.652;9.292;2023-08-07T06:22:40;11.60;99.90
73643;DHT22;61938;48.652;9.292;2023-08-07T06:25:05;11.40;99.90
73643;DHT22;61938;48.652;9.292;2023-08-07T06:27:32;11.40;99.90
73643;DHT22;61938;48.652;9.292;2023-08-07T06:29:57;11.50;99.90
73643;DHT22;61938;48.652;9.292;2023-08-07T06:32:24;11.50;99.90
73643;DHT22;61938;48.652;9.292;2023-08-07T06:34:49;11.50;99.90
73643;DHT22;61938;48.652;9.292;2023-08-07T06:37:15;11.60;99.90
73643;DHT22;61938;48.652;9.292;2023-08-07T06:39:40;11.60;99.90
73643;DHT22;61938;48.652;9.292;2023-08-07T06:42:06;11.70;99.90
73643;DHT22;61938;48.652;9.292;2023-08-07T06:44:31;11.70;99.90
73643;DHT22;61938;48.652;9.292;2023-08-07T06:46:57;11.70;99.90
73643;DHT22;61938;48.652;9.292;2023-08-07T06:49:22;11.80;99.90
73643;DHT22;61938;48.652;9.292;2023-08-07T06:51:49;11.80;99.90
73643;DHT22;61938;48.652;9.292;2023-08-07T06:54:14;11.80;99.90
73643;DHT22;61938;48.652;9.292;2023-08-07T06:56:40;11.90;99.90
73643;DHT22;61938;48.652;9.292;2023-08-07T06:59:07;11.90;99.90
73643;DHT22;61938;48.652;9.292;2023-08-07T07:01:33;12.00;99.90
73643;DHT22;61938;48.652;9.292;2023-08-07T07:03:58;12.10;99.90
73643;DHT22;61938;48.652;9.292;2023-08-07T07:06:24;12.20;99.90
73643;DHT22;61938;48.652;9.292;2023-08-07T07:08:51;12.20;99.90
73643;DHT22;61938;48.652;9.292;2023-08-07T07:11:19;12.30;99.90
73643;DHT22;61938;48.652;9.292;2023-08-07T07:13:46;12.40;99.90
73643;DHT22;61938;48.652;9.292;2023-08-07T07:16:11;12.50;99.90
73643;DHT22;61938;48.652;9.292;2023-08-07T07:18:38;12.60;99.90
73643;DHT22;61938;48.652;9.292;2023-08-07T07:21:04;12.70;99.90
73643;DHT22;61938;48.652;9.292;2023-08-07T07:23:29;12.80;99.90
73643;DHT22;61938;48.652;9.292;2023-08-07T07:25:55;12.90;99.90
73643;DHT22;61938;48.652;9.292;2023-08-07T07:28:22;13.10;99.90
73643;DHT22;61938;48.652;9.292;2023-08-07T07:30:47;13.20;99.90
73643;DHT22;61938;48.652;9.292;2023-08-07T07:33:13;13.20;99.90
73643;DHT22;61938;48.652;9.292;2023-08-07T07:35:39;13.30;99.90
73643;DHT22;61938;48.652;9.292;2023-08-07T07:38:06;13.40;99.90
73643;DHT22;61938;48.652;9.292;2023-08-07T07:40:31;13.50;99.90
73643;DHT22;61938;48.652;9.292;2023-08-07T07:42:57;13.60;99.90
73643;DHT22;61938;48.652;9.292;2023-08-07T07:45:22;13.60;99.90
73643;DHT22;61938;48.652;9.292;2023-08-07T07:47:48;13.60;99.90
73643;DHT22;61938;48.652;9.292;2023-08-07T07:50:13;13.90;99.90
73643;DHT22;61938;48.652;9.292;2023-08-07T07:52:39;14.30;99.90
73643;DHT22;61938;48.652;9.292;2023-08-07T07:55:05;14.80;99.90
73643;DHT22;61938;48.652;9.292;2023-08-07T07:57:31;15.10;99.90
73643;DHT22;61938;48.652;9.292;2023-08-07T07:59:56;15.50;99.90
73643;DHT22;61938;48.652;9.292;2023-08-07T08:02:22;15.60;99.90
73643;DHT22;61938;48.652;9.292;2023-08-07T08:04:50;15.50;99.90
73643;DHT22;61938;48.652;9.292;2023-08-07T08:07:16;15.40;99.90
73643;DHT22;61938;48.652;9.292;2023-08-07T08:09:41;15.30;99.90
73643;DHT22;61938;48.652;9.292;2023-08-07T08:12:07;15.20;99.90
73643;DHT22;61938;48.652;9.292;2023-08-07T08:14:33;15.20;99.90
73643;DHT22;61938;48.652;9.292;2023-08-07T08:16:59;15.20;99.90
73643;DHT22;61938;48.652;9.292;2023-08-07T08:19:24;15.10;99.90
73643;DHT22;61938;48.652;9.292;2023-08-07T08:21:50;15.10;99.90
73643;DHT22;61938;48.652;9.292;2023-08-07T08:24:15;15.00;99.90
73643;DHT22;61938;48.652;9.292;2023-08-07T08:26:41;15.00;99.90
73643;DHT22;61938;48.652;9.292;2023-08-07T08:29:06;14.90;99.90
73643;DHT22;61938;48.652;9.292;2023-08-07T08:31:33;14.90;99.90
73643;DHT22;61938;48.652;9.292;2023-08-07T08:33:59;14.90;99.90
73643;DHT22;61938;48.652;9.292;2023-08-07T08:36:24;14.90;99.90
73643;DHT22;61938;48.652;9.292;2023-08-07T08:38:50;15.10;99.90
73643;DHT22;61938;48.652;9.292;2023-08-07T08:41:17;15.50;99.90
73643;DHT22;61938;48.652;9.292;2023-08-07T08:43:45;16.20;99.90
73643;DHT22;61938;48.652;9.292;2023-08-07T08:46:14;16.20;99.90
73643;DHT22;61938;48.652;9.292;2023-08-07T08:48:46;16.20;99.90
73643;DHT22;61938;48.652;9.292;2023-08-07T08:51:12;16.70;99.90
73643;DHT22;61938;48.652;9.292;2023-08-07T08:53:38;17.00;99.90
73643;DHT22;61938;48.652;9.292;2023-08-07T08:56:05;17.30;99.90
73643;DHT22;61938;48.652;9.292;2023-08-07T08:58:31;17.20;99.90
73643;DHT22;61938;48.652;9.292;2023-08-07T09:00:57;17.60;99.90
73643;DHT22;61938;48.652;9.292;2023-08-07T09:03:24;18.00;99.90
73643;DHT22;61938;48.652;9.292;2023-08-07T09:05:53;18.00;99.90
73643;DHT22;61938;48.652;9.292;2023-08-07T09:08:20;18.00;99.90
73643;DHT22;61938;48.652;9.292;2023-08-07T09:10:46;17.70;99.90
73643;DHT22;61938;48.652;9.292;2023-08-07T09:13:14;17.20;99.90
73643;DHT22;61938;48.652;9.292;2023-08-07T09:15:40;17.40;99.90
73643;DHT22;61938;48.652;9.292;2023-08-07T09:18:06;17.60;99.90
73643;DHT22;61938;48.652;9.292;2023-08-07T09:20:34;17.50;99.90
73643;DHT22;61938;48.652;9.292;2023-08-07T09:23:00;17.60;99.90
73643;DHT22;61938;48.652;9.292;2023-08-07T09:25:30;17.70;99.90
73643;DHT22;61938;48.652;9.292;2023-08-07T09:27:56;17.70;99.90
73643;DHT22;61938;48.652;9.292;2023-08-07T09:30:29;17.80;99.90
73643;DHT22;61938;48.652;9.292;2023-08-07T09:32:57;18.00;99.90
73643;DHT22;61938;48.652;9.292;2023-08-07T09:35:23;17.70;99.90
73643;DHT22;61938;48.652;9.292;2023-08-07T09:37:49;17.30;99.90
73643;DHT22;61938;48.652;9.292;2023-08-07T09:40:15;17.10;99.90
73643;DHT22;61938;48.652;9.292;2023-08-07T09:42:41;17.20;99.90
73643;DHT22;61938;48.652;9.292;2023-08-07T09:47:45;17.10;99.90
73643;DHT22;61938;48.652;9.292;2023-08-07T09:50:17;17.20;99.90
73643;DHT22;61938;48.652;9.292;2023-08-07T09:52:47;17.40;99.90
73643;DHT22;61938;48.652;9.292;2023-08-07T09:55:13;17.60;99.90
73643;DHT22;61938;48.652;9.292;2023-08-07T09:57:42;17.90;99.90
73643;DHT22;61938;48.652;9.292;2023-08-07T10:00:09;18.20;99.90
73643;DHT22;61938;48.652;9.292;2023-08-07T10:02:38;18.30;99.90
73643;DHT22;61938;48.652;9.292;2023-08-07T10:05:05;18.10;99.90
73643;DHT22;61938;48.652;9.292;2023-08-07T10:07:32;17.90;99.90
73643;DHT22;61938;48.652;9.292;2023-08-07T10:09:59;17.30;99.90
73643;DHT22;61938;48.652;9.292;2023-08-07T10:12:26;16.90;99.90
73643;DHT22;61938;48.652;9.292;2023-08-07T10:14:53;16.80;99.90
73643;DHT22;61938;48.652;9.292;2023-08-07T10:17:21;16.90;99.90
73643;DHT22;61938;48.652;9.292;2023-08-07T10:19:47;17.10;99.90
73643;DHT22;61938;48.652;9.292;2023-08-07T10:22:15;17.10;99.90
73643;DHT22;61938;48.652;9.292;2023-08-07T10:24:42;17.30;99.90
73643;DHT22;61938;48.652;9.292;2023-08-07T10:27:11;17.40;99.90
73643;DHT22;61938;48.652;9.292;2023-08-07T10:29:38;17.50;99.90
73643;DHT22;61938;48.652;9.292;2023-08-07T10:32:06;17.40;99.90
73643;DHT22;61938;48.652;9.292;2023-08-07T10:34:37;17.50;99.90
73643;DHT22;61938;48.652;9.292;2023-08-07T10:37:06;17.70;99.90
73643;DHT22;61938;48.652;9.292;2023-08-07T10:39:35;17.90;99.90
73643;DHT22;61938;48.652;9.292;2023-08-07T10:42:01;17.90;99.90
73643;DHT22;61938;48.652;9.292;2023-08-07T10:44:30;17.90;99.90
73643;DHT22;61938;48.652;9.292;2023-08-07T10:46:57;17.90;99.90
73643;DHT22;61938;48.652;9.292;2023-08-07T10:49:34;18.50;99.90
73643;DHT22;61938;48.652;9.292;2023-08-07T10:52:20;18.80;99.90
73643;DHT22;61938;48.652;9.292;2023-08-07T10:54:49;18.80;99.90
73643;DHT22;61938;48.652;9.292;2023-08-07T10:57:16;18.50;99.90
73643;DHT22;61938;48.652;9.292;2023-08-07T11:00:02;18.30;99.90
73643;DHT22;61938;48.652;9.292;2023-08-07T11:02:31;18.20;99.90
73643;DHT22;61938;48.652;9.292;2023-08-07T11:04:58;18.30;99.90
73643;DHT22;61938;48.652;9.292;2023-08-07T11:07:26;18.30;99.90
73643;DHT22;61938;48.652;9.292;2023-08-07T11:09:52;18.10;99.90
73643;DHT22;61938;48.652;9.292;2023-08-07T11:12:18;17.90;99.90
73643;DHT22;61938;48.652;9.292;2023-08-07T11:14:44;17.50;99.90
73643;DHT22;61938;48.652;9.292;2023-08-07T11:17:09;17.30;99.90
73643;DHT22;61938;48.652;9.292;2023-08-07T11:19:35;17.00;99.90
73643;DHT22;61938;48.652;9.292;2023-08-07T11:22:01;16.70;99.90
73643;DHT22;61938;48.652;9.292;2023-08-07T11:24:27;16.70;99.90
73643;DHT22;61938;48.652;9.292;2023-08-07T11:26:53;16.80;99.90
73643;DHT22;61938;48.652;9.292;2023-08-07T11:29:21;17.20;99.90
73643;DHT22;61938;48.652;9.292;2023-08-07T11:31:48;17.90;99.90
73643;DHT22;61938;48.652;9.292;2023-08-07T11:34:13;18.40;99.90
73643;DHT22;61938;48.652;9.292;2023-08-07T11:36:42;18.30;99.90
73643;DHT22;61938;48.652;9.292;2023-08-07T11:39:08;18.40;99.90
73643;DHT22;61938;48.652;9.292;2023-08-07T11:41:34;18.60;99.90
73643;DHT22;61938;48.652;9.292;2023-08-07T11:43:59;18.50;99.90
73643;DHT22;61938;48.652;9.292;2023-08-07T11:46:26;18.40;99.90
73643;DHT22;61938;48.652;9.292;2023-08-07T11:48:52;18.20;99.90
73643;DHT22;61938;48.652;9.292;2023-08-07T11:51:20;17.90;99.90
73643;DHT22;61938;48.652;9.292;2023-08-07T11:53:45;17.50;99.90
73643;DHT22;61938;48.652;9.292;2023-08-07T11:56:12;17.20;99.90
73643;DHT22;61938;48.652;9.292;2023-08-07T11:58:45;17.00;99.90
73643;DHT22;61938;48.652;9.292;2023-08-07T12:01:12;16.90;99.90
73643;DHT22;61938;48.652;9.292;2023-08-07T12:03:41;16.70;99.90
73643;DHT22;61938;48.652;9.292;2023-08-07T12:06:09;16.60;99.90
73643;DHT22;61938;48.652;9.292;2023-08-07T12:08:39;16.40;99.90
73643;DHT22;61938;48.652;9.292;2023-08-07T12:11:06;16.30;99.90
73643;DHT22;61938;48.652;9.292;2023-08-07T12:13:32;16.20;99.90
73643;DHT22;61938;48.652;9.292;2023-08-07T12:16:01;16.10;99.90
73643;DHT22;61938;48.652;9.292;2023-08-07T12:18:27;16.10;99.90
73643;DHT22;61938;48.652;9.292;2023-08-07T12:20:58;16.10;99.90
73643;DHT22;61938;48.652;9.292;2023-08-07T12:23:24;16.00;99.90
73643;DHT22;61938;48.652;9.292;2023-08-07T12:25:50;15.90;99.90
73643;DHT22;61938;48.652;9.292;2023-08-07T12:28:16;15.90;99.90
73643;DHT22;61938;48.652;9.292;2023-08-07T12:30:45;15.80;99.90
73643;DHT22;61938;48.652;9.292;2023-08-07T12:33:14;15.80;99.90
73643;DHT22;61938;48.652;9.292;2023-08-07T12:35:40;15.70;99.90
73643;DHT22;61938;48.652;9.292;2023-08-07T12:38:07;15.60;99.90
73643;DHT22;61938;48.652;9.292;2023-08-07T12:40:33;15.60;99.90
73643;DHT22;61938;48.652;9.292;2023-08-07T12:43:01;15.40;99.90
73643;DHT22;61938;48.652;9.292;2023-08-07T12:45:28;15.30;99.90
73643;DHT22;61938;48.652;9.292;2023-08-07T12:47:54;15.20;99.90
73643;DHT22;61938;48.652;9.292;2023-08-07T12:50:19;15.20;99.90
73643;DHT22;61938;48.652;9.292;2023-08-07T12:52:45;15.20;99.90
73643;DHT22;61938;48.652;9.292;2023-08-07T12:55:11;15.20;99.90
73643;DHT22;61938;48.652;9.292;2023-08-07T12:57:40;15.20;99.90
73643;DHT22;61938;48.652;9.292;2023-08-07T13:00:06;15.20;99.90
73643;DHT22;61938;48.652;9.292;2023-08-07T13:02:33;15.40;99.90
73643;DHT22;61938;48.652;9.292;2023-08-07T13:04:59;15.40;99.90
73643;DHT22;61938;48.652;9.292;2023-08-07T13:07:24;15.90;99.90
73643;DHT22;61938;48.652;9.292;2023-08-07T13:09:50;15.20;99.90
73643;DHT22;61938;48.652;9.292;2023-08-07T13:12:16;15.30;99.90
73643;DHT22;61938;48.652;9.292;2023-08-07T13:14:41;15.20;99.90
73643;DHT22;61938;48.652;9.292;2023-08-07T13:17:07;15.10;99.90
73643;DHT22;61938;48.652;9.292;2023-08-07T13:19:32;15.20;99.90
73643;DHT22;61938;48.652;9.292;2023-08-07T13:21:58;15.10;99.90
73643;DHT22;61938;48.652;9.292;2023-08-07T13:24:23;15.10;99.90
73643;DHT22;61938;48.652;9.292;2023-08-07T13:26:49;15.10;99.90
73643;DHT22;61938;48.652;9.292;2023-08-07T13:29:14;15.00;99.90
73643;DHT22;61938;48.652;9.292;2023-08-07T13:31:40;15.10;99.90
73643;DHT22;61938;48.652;9.292;2023-08-07T13:34:12;15.10;99.90
73643;DHT22;61938;48.652;9.292;2023-08-07T13:36:37;15.30;99.90
73643;DHT22;61938;48.652;9.292;2023-08-07T13:39:04;15.50;99.90
73643;DHT22;61938;48.652;9.292;2023-08-07T13:41:30;15.60;99.90
73643;DHT22;61938;48.652;9.292;2023-08-07T13:43:56;15.90;99.90
73643;DHT22;61938;48.652;9.292;2023-08-07T13:46:21;16.00;99.90
73643;DHT22;61938;48.652;9.292;2023-08-07T13:48:47;16.00;99.90
73643;DHT22;61938;48.652;9.292;2023-08-07T13:51:14;16.00;99.90
73643;DHT22;61938;48.652;9.292;2023-08-07T13:53:40;16.00;99.90
73643;DHT22;61938;48.652;9.292;2023-08-07T13:56:05;16.00;99.90
73643;DHT22;61938;48.652;9.292;2023-08-07T13:58:32;16.00;99.90
73643;DHT22;61938;48.652;9.292;2023-08-07T14:00:57;15.90;99.90
73643;DHT22;61938;48.652;9.292;2023-08-07T14:03:23;15.90;99.90
73643;DHT22;61938;48.652;9.292;2023-08-07T14:05:49;15.90;99.90
73643;DHT22;61938;48.652;9.292;2023-08-07T14:08:15;16.10;99.90
73643;DHT22;61938;48.652;9.292;2023-08-07T14:10:41;16.50;99.90
73643;DHT22;61938;48.652;9.292;2023-08-07T14:13:07;16.90;99.90
73643;DHT22;61938;48.652;9.292;2023-08-07T14:15:32;17.30;99.90
73643;DHT22;61938;48.652;9.292;2023-08-07T14:17:58;17.50;99.90
73643;DHT22;61938;48.652;9.292;2023-08-07T14:20:24;17.80;99.90
73643;DHT22;61938;48.652;9.292;2023-08-07T14:22:50;18.10;99.90
73643;DHT22;61938;48.652;9.292;2023-08-07T14:25:16;18.40;99.90
73643;DHT22;61938;48.652;9.292;2023-08-07T14:27:41;18.80;99.90
73643;DHT22;61938;48.652;9.292;2023-08-07T14:30:07;19.10;99.90
73643;DHT22;61938;48.652;9.292;2023-08-07T14:32:33;19.00;99.90
73643;DHT22;61938;48.652;9.292;2023-08-07T14:34:59;19.00;99.90
73643;DHT22;61938;48.652;9.292;2023-08-07T14:37:24;19.30;99.90
73643;DHT22;61938;48.652;9.292;2023-08-07T14:39:50;19.40;99.90
73643;DHT22;61938;48.652;9.292;2023-08-07T14:42:15;19.10;99.90
73643;DHT22;61938;48.652;9.292;2023-08-07T14:44:41;19.10;99.90
73643;DHT22;61938;48.652;9.292;2023-08-07T14:47:06;19.40;99.90
73643;DHT22;61938;48.652;9.292;2023-08-07T14:49:32;19.40;99.90
73643;DHT22;61938;48.652;9.292;2023-08-07T14:51:57;19.60;99.90
73643;DHT22;61938;48.652;9.292;2023-08-07T14:54:23;19.50;99.90
73643;DHT22;61938;48.652;9.292;2023-08-07T14:56:49;19.40;99.90
73643;DHT22;61938;48.652;9.292;2023-08-07T14:59:15;19.50;99.90
73643;DHT22;61938;48.652;9.292;2023-08-07T15:01:40;19.20;99.90
73643;DHT22;61938;48.652;9.292;2023-08-07T15:04:06;18.90;99.90
73643;DHT22;61938;48.652;9.292;2023-08-07T15:06:32;18.60;99.90
73643;DHT22;61938;48.652;9.292;2023-08-07T15:08:58;18.30;99.90
73643;DHT22;61938;48.652;9.292;2023-08-07T15:11:23;18.20;99.90
73643;DHT22;61938;48.652;9.292;2023-08-07T15:13:49;17.90;99.90
73643;DHT22;61938;48.652;9.292;2023-08-07T15:16:15;17.70;99.90
73643;DHT22;61938;48.652;9.292;2023-08-07T15:18:40;17.50;99.90
73643;DHT22;61938;48.652;9.292;2023-08-07T15:21:06;17.40;99.90
73643;DHT22;61938;48.652;9.292;2023-08-07T15:23:32;17.30;99.90
73643;DHT22;61938;48.652;9.292;2023-08-07T15:25:57;17.10;99.90
73643;DHT22;61938;48.652;9.292;2023-08-07T15:28:23;17.10;99.90
73643;DHT22;61938;48.652;9.292;2023-08-07T15:30:50;17.10;99.90
73643;DHT22;61938;48.652;9.292;2023-08-07T15:33:17;17.20;99.90
73643;DHT22;61938;48.652;9.292;2023-08-07T15:35:43;17.50;99.90